createdAt,value
2022-09-07T00:02:04.794Z,81.40
2022-09-07T00:04:31.801Z,81.30
2022-09-07T00:06:58.592Z,81.40
2022-09-07T00:09:25.414Z,81.30
2022-09-07T00:11:52.086Z,81.30
2022-09-07T00:14:18.870Z,81.30
2022-09-07T00:16:45.720Z,81.40
2022-09-07T00:19:12.543Z,81.40
2022-09-07T00:21:39.282Z,81.40
2022-09-07T00:24:06.139Z,81.50
2022-09-07T00:26:32.938Z,81.50
2022-09-07T00:29:01.600Z,81.40
2022-09-07T00:31:30.077Z,81.40
2022-09-07T00:33:59.566Z,81.40
2022-09-07T00:36:26.667Z,81.30
2022-09-07T00:38:54.630Z,81.10
2022-09-07T00:41:22.086Z,81.00
2022-09-07T00:43:54.476Z,80.90
2022-09-07T00:46:27.393Z,81.10
2022-09-07T00:49:08.099Z,80.90
2022-09-07T00:51:46.535Z,80.90
2022-09-07T00:54:17.744Z,80.80
2022-09-07T00:56:45.616Z,80.80
2022-09-07T00:59:15.208Z,80.80
2022-09-07T01:01:42.178Z,80.60
2022-09-07T01:04:09.595Z,80.60
2022-09-07T01:06:38.355Z,80.70
2022-09-07T01:09:10.225Z,80.80
2022-09-07T01:11:37.229Z,80.80
2022-09-07T01:14:06.887Z,81.00
2022-09-07T01:16:42.808Z,81.10
2022-09-07T01:19:34.777Z,81.30
2022-09-07T01:22:14.953Z,81.40
2022-09-07T01:25:05.158Z,81.50
2022-09-07T01:27:48.482Z,81.50
2022-09-07T01:30:17.489Z,81.60
2022-09-07T01:33:08.065Z,81.60
2022-09-07T01:35:56.427Z,81.70
2022-09-07T01:38:56.554Z,81.40
2022-09-07T01:41:43.621Z,81.10
2022-09-07T01:44:25.392Z,80.90
2022-09-07T01:47:09.978Z,80.70
2022-09-07T01:50:08.876Z,80.70
2022-09-07T01:52:42.447Z,80.60
2022-09-07T01:55:27.184Z,80.40
2022-09-07T01:58:02.267Z,80.40
2022-09-07T02:00:30.083Z,80.30
2022-09-07T02:03:15.645Z,80.30
2022-09-07T02:05:52.823Z,81.70
2022-09-07T02:08:34.126Z,82.40
2022-09-07T02:11:33.596Z,83.30
2022-09-07T02:14:18.126Z,84.20
2022-09-07T02:16:54.271Z,84.60
2022-09-07T02:19:22.611Z,85.10
2022-09-07T02:21:55.353Z,85.00
2022-09-07T02:24:26.528Z,85.80
2022-09-07T02:26:54.447Z,85.80
2022-09-07T02:29:21.466Z,85.70
2022-09-07T02:31:50.029Z,85.90
2022-09-07T02:34:16.780Z,86.00
2022-09-07T02:36:48.232Z,85.90
2022-09-07T02:39:15.148Z,86.10
2022-09-07T02:41:43.396Z,85.80
2022-09-07T02:44:23.274Z,86.00
2022-09-07T02:46:57.296Z,86.30
2022-09-07T02:49:33.817Z,86.40
2022-09-07T02:52:13.894Z,86.90
2022-09-07T02:55:19.094Z,87.30
2022-09-07T02:58:03.884Z,87.60
2022-09-07T03:00:31.955Z,87.50
2022-09-07T03:03:15.765Z,87.50
2022-09-07T03:05:57.771Z,87.00
2022-09-07T03:08:28.944Z,87.00
2022-09-07T03:10:56.448Z,86.40
2022-09-07T03:13:25.583Z,86.10
2022-09-07T03:15:55.723Z,85.90
2022-09-07T03:18:26.881Z,85.80
2022-09-07T03:20:54.327Z,85.60
2022-09-07T03:23:21.159Z,85.50
2022-09-07T03:25:49.020Z,85.60
2022-09-07T03:28:16.285Z,85.70
2022-09-07T03:30:49.892Z,85.90
2022-09-07T03:33:17.063Z,86.00
2022-09-07T03:35:45.020Z,86.00
2022-09-07T03:38:12.252Z,85.90
2022-09-07T03:40:38.999Z,85.80
2022-09-07T03:43:05.785Z,85.60
2022-09-07T03:45:32.535Z,85.60
2022-09-07T03:47:59.255Z,85.80
2022-09-07T03:50:26.107Z,85.90
2022-09-07T03:52:52.977Z,85.90
2022-09-07T03:55:19.864Z,85.90
2022-09-07T03:57:46.615Z,85.80
2022-09-07T04:00:14.258Z,85.80
2022-09-07T04:02:40.991Z,86.00
2022-09-07T04:05:08.242Z,86.00
2022-09-07T04:07:34.927Z,85.90
2022-09-07T04:10:01.916Z,85.90
2022-09-07T04:12:28.669Z,85.90
2022-09-07T04:14:55.707Z,86.00
2022-09-07T04:17:22.426Z,85.90
2022-09-07T04:19:49.125Z,86.00
2022-09-07T04:22:15.960Z,86.00
2022-09-07T04:24:42.643Z,86.00
2022-09-07T04:27:09.326Z,86.00
2022-09-07T04:29:36.081Z,86.00
2022-09-07T04:32:02.841Z,86.00
2022-09-07T04:34:29.677Z,86.10
2022-09-07T04:36:56.350Z,86.40
2022-09-07T04:39:23.128Z,87.10
2022-09-07T04:41:49.783Z,87.60
2022-09-07T04:44:17.226Z,88.20
2022-09-07T04:46:44.045Z,88.70
2022-09-07T04:49:11.882Z,88.80
2022-09-07T04:51:39.557Z,89.00
2022-09-07T04:54:07.033Z,88.90
2022-09-07T04:56:34.253Z,88.70
2022-09-07T04:59:01.954Z,88.50
2022-09-07T05:01:28.828Z,88.30
2022-09-07T05:03:55.807Z,88.30
2022-09-07T05:06:23.224Z,88.20
2022-09-07T05:08:52.151Z,88.30
2022-09-07T05:11:20.657Z,88.20
2022-09-07T05:13:48.824Z,88.30
2022-09-07T05:16:18.027Z,88.50
2022-09-07T05:18:45.602Z,88.50
2022-09-07T05:21:15.711Z,88.60
2022-09-07T05:23:43.471Z,89.10
2022-09-07T05:26:11.112Z,89.20
2022-09-07T05:28:38.157Z,89.60
2022-09-07T05:36:37.986Z,90.30
2022-09-07T05:39:06.408Z,90.40
2022-09-07T05:41:33.146Z,90.30
2022-09-07T05:46:46.936Z,90.40
2022-09-07T05:49:13.615Z,90.30
2022-09-07T05:51:41.164Z,90.30
2022-09-07T05:54:07.906Z,90.30
2022-09-07T05:56:37.772Z,90.20
2022-09-07T05:59:04.762Z,90.10
2022-09-07T06:01:31.825Z,90.00
2022-09-07T06:03:58.908Z,89.90
2022-09-07T06:06:25.628Z,89.90
2022-09-07T06:08:53.533Z,90.00
2022-09-07T06:11:22.100Z,90.00
2022-09-07T06:13:49.276Z,89.90
2022-09-07T06:16:17.278Z,90.00
2022-09-07T06:18:46.236Z,89.80
2022-09-07T06:21:21.499Z,89.70
2022-09-07T06:23:49.251Z,89.50
2022-09-07T06:26:16.648Z,89.30
2022-09-07T06:28:48.712Z,89.20
2022-09-07T06:31:22.092Z,89.30
2022-09-07T06:33:49.564Z,89.20
2022-09-07T06:36:18.179Z,89.10
2022-09-07T06:38:46.970Z,89.00
2022-09-07T06:44:04.797Z,88.70
2022-09-07T06:49:18.134Z,89.00
2022-09-07T06:51:44.870Z,89.10
2022-09-07T06:56:58.208Z,89.30
2022-09-07T06:59:24.939Z,89.20
2022-09-07T07:01:51.756Z,89.20
2022-09-07T07:04:18.444Z,89.00
2022-09-07T07:06:45.125Z,89.00
2022-09-07T07:09:13.331Z,88.70
2022-09-07T07:11:40.181Z,88.40
2022-09-07T07:14:06.985Z,88.30
2022-09-07T07:16:33.745Z,88.20
2022-09-07T07:19:00.969Z,87.90
2022-09-07T07:21:38.247Z,87.80
2022-09-07T07:24:10.131Z,87.70
2022-09-07T07:26:36.885Z,87.50
2022-09-07T07:29:04.277Z,87.40
2022-09-07T07:31:33.229Z,87.40
2022-09-07T07:34:00.115Z,87.30
2022-09-07T07:36:27.387Z,87.00
2022-09-07T07:38:59.515Z,87.00
2022-09-07T07:44:18.339Z,87.10
2022-09-07T07:46:48.988Z,87.40
2022-09-07T07:49:16.001Z,87.10
2022-09-07T07:54:29.364Z,86.10
2022-09-07T07:56:56.023Z,86.00
2022-09-07T07:59:23.314Z,85.60
2022-09-07T08:01:50.244Z,85.20
2022-09-07T08:04:17.021Z,84.90
2022-09-07T08:06:43.729Z,84.50
2022-09-07T08:09:11.904Z,84.50
2022-09-07T08:11:40.243Z,83.80
2022-09-07T08:14:08.534Z,83.40
2022-09-07T08:16:36.363Z,83.30
2022-09-07T08:19:03.353Z,83.10
2022-09-07T08:21:30.348Z,82.80
2022-09-07T08:23:57.078Z,83.00
2022-09-07T08:26:23.852Z,82.90
2022-09-07T08:28:50.504Z,81.90
2022-09-07T08:31:17.764Z,81.00
2022-09-07T08:33:45.042Z,81.00
2022-09-07T08:36:17.554Z,81.10
2022-09-07T08:38:44.328Z,80.30
2022-09-07T08:41:29.974Z,80.10
2022-09-07T08:44:22.786Z,79.90
2022-09-07T08:47:07.466Z,79.00
2022-09-07T08:49:34.030Z,79.60
2022-09-07T08:52:11.307Z,79.60
2022-09-07T08:54:39.747Z,80.20
2022-09-07T08:57:23.951Z,80.70
2022-09-07T09:00:07.352Z,81.60
2022-09-07T09:02:40.289Z,82.30
2022-09-07T09:05:48.658Z,82.10
2022-09-07T09:08:31.422Z,82.60
2022-09-07T09:11:33.083Z,81.90
2022-09-07T09:14:34.593Z,81.10
2022-09-07T09:17:09.277Z,81.10
2022-09-07T09:20:00.746Z,81.50
2022-09-07T09:22:28.461Z,81.40
2022-09-07T09:25:18.462Z,81.00
2022-09-07T09:27:45.393Z,80.90
2022-09-07T09:30:14.460Z,79.80
2022-09-07T09:32:43.697Z,79.30
2022-09-07T09:35:32.400Z,77.90
2022-09-07T09:37:59.016Z,78.20
2022-09-07T09:40:28.121Z,79.20
2022-09-07T09:43:17.954Z,78.10
2022-09-07T09:48:35.497Z,76.70
2022-09-07T09:53:57.300Z,71.50
2022-09-07T09:56:36.522Z,71.10
2022-09-07T10:05:28.072Z,68.90
2022-09-07T10:07:55.005Z,68.50
2022-09-07T10:10:21.757Z,67.90
2022-09-07T10:12:54.025Z,66.50
2022-09-07T10:15:40.090Z,64.30
2022-09-07T10:18:15.010Z,64.90
2022-09-07T10:20:41.727Z,62.90
2022-09-07T10:23:21.348Z,62.50
2022-09-07T10:25:48.190Z,60.70
2022-09-07T10:28:23.946Z,61.00
2022-09-07T10:31:15.339Z,60.40
2022-09-07T10:37:09.088Z,58.60
2022-09-07T10:39:37.116Z,58.60
2022-09-07T10:42:09.731Z,57.00
2022-09-07T10:44:57.627Z,57.90
2022-09-07T10:47:37.665Z,58.70
2022-09-07T10:50:29.783Z,59.60
2022-09-07T10:53:13.399Z,59.10
2022-09-07T10:56:09.136Z,59.40
2022-09-07T10:59:04.114Z,59.00
2022-09-07T11:02:09.196Z,59.00
2022-09-07T11:04:46.786Z,59.00
2022-09-07T11:07:23.140Z,58.90
2022-09-07T11:10:27.628Z,59.20
2022-09-07T11:12:58.131Z,58.40
2022-09-07T11:15:31.062Z,58.50
2022-09-07T11:18:03.655Z,58.90
2022-09-07T11:20:32.502Z,59.60
2022-09-07T11:23:14.142Z,59.70
2022-09-07T11:25:42.109Z,59.60
2022-09-07T11:28:16.575Z,59.50
2022-09-07T11:30:47.969Z,60.00
2022-09-07T11:33:19.877Z,59.10
2022-09-07T11:36:13.102Z,60.00
2022-09-07T11:38:51.365Z,61.00
2022-09-07T11:41:34.118Z,61.30
2022-09-07T11:44:06.338Z,60.60
2022-09-07T11:46:40.908Z,59.70
2022-09-07T11:49:19.822Z,60.90
2022-09-07T11:51:53.717Z,60.80
2022-09-07T11:54:51.818Z,59.80
2022-09-07T11:57:44.664Z,57.80
2022-09-07T12:00:20.223Z,58.30
2022-09-07T12:03:07.282Z,58.00
2022-09-07T12:06:07.323Z,58.00
2022-09-07T12:08:54.189Z,58.30
2022-09-07T12:11:31.944Z,56.60
2022-09-07T12:14:22.087Z,57.00
2022-09-07T12:17:08.235Z,58.10
2022-09-07T12:19:35.170Z,58.00
2022-09-07T12:22:02.351Z,57.80
2022-09-07T12:24:46.390Z,56.90
2022-09-07T12:27:22.284Z,56.40
2022-09-07T12:29:52.570Z,56.50
2022-09-07T12:32:55.807Z,57.20
2022-09-07T12:35:26.410Z,55.80
2022-09-07T12:37:54.427Z,56.30
2022-09-07T12:40:48.620Z,55.90
2022-09-07T12:43:15.228Z,55.30
2022-09-07T12:45:44.657Z,56.80
2022-09-07T12:48:17.506Z,57.50
2022-09-07T12:51:05.360Z,58.20
2022-09-07T12:53:57.963Z,58.20
2022-09-07T12:56:46.899Z,58.40
2022-09-07T12:59:43.514Z,58.80
2022-09-07T13:02:10.248Z,57.60
2022-09-07T13:04:49.962Z,57.50
2022-09-07T13:07:38.907Z,57.30
2022-09-07T13:10:31.071Z,56.80
2022-09-07T13:13:03.013Z,56.90
2022-09-07T13:15:43.632Z,57.30
2022-09-07T13:18:27.761Z,57.70
2022-09-07T13:21:09.699Z,57.70
2022-09-07T13:24:45.540Z,57.20
2022-09-07T13:27:07.558Z,57.80
2022-09-07T13:29:48.599Z,57.70
2022-09-07T13:35:18.496Z,58.30
2022-09-07T13:38:00.680Z,58.70
2022-09-07T13:40:31.983Z,58.20
2022-09-07T13:42:59.675Z,58.30
2022-09-07T13:45:55.574Z,58.70
2022-09-07T13:48:35.620Z,58.70
2022-09-07T13:51:07.489Z,59.10
2022-09-07T13:53:47.318Z,59.50
2022-09-07T13:56:20.023Z,59.40
2022-09-07T13:58:49.430Z,59.60
2022-09-07T14:01:18.993Z,59.40
2022-09-07T14:03:47.837Z,59.00
2022-09-07T14:06:20.469Z,58.80
2022-09-07T14:08:52.206Z,58.80
2022-09-07T14:11:29.753Z,59.10
2022-09-07T14:14:13.617Z,59.50
2022-09-07T14:16:41.923Z,60.00
2022-09-07T14:19:17.750Z,60.50
2022-09-07T14:21:44.544Z,61.80
2022-09-07T14:24:31.328Z,61.00
2022-09-07T14:26:58.278Z,61.30
2022-09-07T14:29:30.010Z,61.40
2022-09-07T14:31:57.956Z,61.70
2022-09-07T14:34:27.490Z,61.90
2022-09-07T14:36:55.314Z,62.20
2022-09-07T14:39:22.976Z,62.70
2022-09-07T14:41:49.810Z,63.00
2022-09-07T14:44:32.986Z,63.00
2022-09-07T14:47:06.232Z,63.60
2022-09-07T14:49:33.110Z,63.60
2022-09-07T14:52:00.736Z,63.50
2022-09-07T14:54:31.304Z,63.70
2022-09-07T14:57:01.062Z,63.60
2022-09-07T14:59:40.842Z,63.80
2022-09-07T15:02:21.974Z,63.90
2022-09-07T15:04:53.061Z,64.00
2022-09-07T15:07:56.727Z,64.00
2022-09-07T15:10:23.866Z,64.80
2022-09-07T15:12:58.982Z,65.00
2022-09-07T15:15:39.432Z,65.60
2022-09-07T15:18:44.365Z,66.00
2022-09-07T15:21:11.293Z,67.10
2022-09-07T15:23:38.067Z,67.60
2022-09-07T15:26:05.352Z,68.00
2022-09-07T15:34:12.052Z,69.30
2022-09-07T15:36:40.984Z,69.40
2022-09-07T15:39:10.819Z,69.40
2022-09-07T15:41:37.454Z,69.60
2022-09-07T15:44:05.117Z,69.50
2022-09-07T15:46:32.087Z,69.30
2022-09-07T15:49:01.653Z,70.00
2022-09-07T15:54:16.642Z,71.60
2022-09-07T15:57:47.677Z,70.70
2022-09-07T15:59:30.547Z,70.60
2022-09-07T16:01:58.187Z,70.60
2022-09-07T16:04:25.413Z,70.70
2022-09-07T16:06:52.265Z,70.70
2022-09-07T16:09:21.741Z,70.80
2022-09-07T16:11:50.054Z,70.90
2022-09-07T16:14:18.999Z,70.90
2022-09-07T16:19:35.066Z,71.00
2022-09-07T16:22:02.131Z,71.60
2022-09-07T16:24:28.943Z,71.50
2022-09-07T16:26:55.550Z,71.40
2022-09-07T16:29:22.240Z,71.30
2022-09-07T16:34:35.855Z,71.00
2022-09-07T16:37:02.975Z,70.80
2022-09-07T16:39:29.729Z,70.50
2022-09-07T16:41:56.436Z,70.40
2022-09-07T16:44:23.201Z,70.20
2022-09-07T16:46:50.666Z,70.30
2022-09-07T16:49:17.825Z,70.50
2022-09-07T16:51:45.694Z,70.40
2022-09-07T16:54:13.766Z,70.60
2022-09-07T16:56:40.529Z,70.70
2022-09-07T16:59:09.572Z,71.10
2022-09-07T17:01:40.063Z,71.30
2022-09-07T17:04:10.951Z,71.40
2022-09-07T17:06:38.554Z,71.70
2022-09-07T17:09:05.579Z,71.50
2022-09-07T17:11:34.183Z,71.50
2022-09-07T17:14:01.233Z,71.40
2022-09-07T17:16:30.542Z,71.10
2022-09-07T17:21:46.316Z,71.10
2022-09-07T17:24:13.336Z,71.10
2022-09-07T17:26:42.154Z,71.10
2022-09-07T17:29:10.437Z,71.10
2022-09-07T17:34:24.859Z,71.40
2022-09-07T17:36:51.739Z,71.40
2022-09-07T17:39:19.320Z,71.50
2022-09-07T17:41:48.491Z,71.50
2022-09-07T17:44:15.495Z,71.70
2022-09-07T17:46:42.296Z,72.00
2022-09-07T17:49:11.986Z,72.40
2022-09-07T17:51:38.691Z,72.90
2022-09-07T17:54:10.943Z,73.70
2022-09-07T17:56:38.951Z,74.20
2022-09-07T18:01:53.892Z,75.30
2022-09-07T18:04:20.830Z,76.30
2022-09-07T18:06:47.601Z,76.80
2022-09-07T18:09:14.426Z,77.20
2022-09-07T18:11:45.523Z,77.20
2022-09-07T18:14:14.255Z,77.50
2022-09-07T18:16:41.353Z,77.90
2022-09-07T18:19:08.678Z,78.00
2022-09-07T18:21:36.900Z,78.20
2022-09-07T18:24:08.790Z,78.10
2022-09-07T18:26:40.305Z,78.00
2022-09-07T18:29:18.920Z,78.00
2022-09-07T18:31:54.601Z,78.00
2022-09-07T18:34:21.626Z,78.20
2022-09-07T18:36:48.778Z,78.00
2022-09-07T18:39:15.441Z,77.80
2022-09-07T18:41:42.290Z,77.50
2022-09-07T18:46:55.935Z,77.30
2022-09-07T18:49:32.757Z,77.20
2022-09-07T18:54:47.107Z,77.50
2022-09-07T18:57:14.313Z,77.70
2022-09-07T18:59:42.070Z,77.90
2022-09-07T19:02:09.707Z,77.90
2022-09-07T19:07:28.807Z,77.80
2022-09-07T19:09:57.135Z,77.80
2022-09-07T19:12:24.284Z,77.70
2022-09-07T19:14:54.294Z,77.70
2022-09-07T19:17:25.246Z,77.70
2022-09-07T19:19:53.045Z,78.40
2022-09-07T19:22:19.679Z,77.60
2022-09-07T19:24:46.948Z,77.60
2022-09-07T19:27:13.561Z,77.80
2022-09-07T19:29:40.182Z,77.90
2022-09-07T19:32:07.683Z,78.10
2022-09-07T19:34:53.704Z,78.90
2022-09-07T19:37:25.253Z,78.30
2022-09-07T19:39:54.990Z,78.00
2022-09-07T19:42:22.506Z,77.80
2022-09-07T19:44:49.831Z,77.60
2022-09-07T19:47:16.748Z,77.50
2022-09-07T19:49:43.417Z,77.40
2022-09-07T19:52:10.092Z,77.30
2022-09-07T19:54:37.582Z,77.10
2022-09-07T19:57:05.084Z,77.10
2022-09-07T19:59:31.718Z,77.60
2022-09-07T20:01:58.442Z,77.30
2022-09-07T20:04:25.208Z,77.30
2022-09-07T20:06:52.286Z,77.30
2022-09-07T20:09:19.818Z,77.30
2022-09-07T20:11:47.710Z,77.20
2022-09-07T20:14:15.556Z,77.40
2022-09-07T20:16:42.530Z,77.60
2022-09-07T20:19:11.956Z,77.70
2022-09-07T20:21:38.595Z,77.90
2022-09-07T20:24:05.766Z,78.00
2022-09-07T20:26:32.696Z,78.20
2022-09-07T20:29:16.762Z,78.30
2022-09-07T20:31:47.023Z,79.10
2022-09-07T20:34:14.331Z,78.40
2022-09-07T20:36:41.036Z,78.40
2022-09-07T20:39:08.134Z,78.60
2022-09-07T20:41:35.398Z,78.70
2022-09-07T20:44:03.891Z,78.90
2022-09-07T20:46:31.278Z,79.10
2022-09-07T20:48:58.266Z,79.20
2022-09-07T20:51:24.928Z,79.40
2022-09-07T20:53:51.816Z,79.40
2022-09-07T20:56:20.941Z,79.50
2022-09-07T20:58:48.914Z,79.50
2022-09-07T21:01:17.850Z,79.60
2022-09-07T21:03:49.602Z,79.50
2022-09-07T21:06:17.267Z,79.40
2022-09-07T21:08:45.299Z,79.40
2022-09-07T21:11:21.506Z,79.20
2022-09-07T21:13:54.534Z,79.10
2022-09-07T21:16:21.374Z,79.00
2022-09-07T21:18:55.807Z,78.80
2022-09-07T21:21:23.831Z,78.70
2022-09-07T21:23:59.284Z,78.50
2022-09-07T21:26:27.323Z,78.30
2022-09-07T21:29:05.030Z,78.20
2022-09-07T21:31:33.383Z,78.10
2022-09-07T21:34:01.357Z,78.00
2022-09-07T21:36:28.885Z,77.90
2022-09-07T21:38:55.810Z,77.80
2022-09-07T21:41:23.956Z,77.70
2022-09-07T21:43:58.115Z,77.60
2022-09-07T21:46:25.537Z,77.50
2022-09-07T21:48:52.340Z,77.50
2022-09-07T21:51:19.247Z,77.60
2022-09-07T21:53:53.896Z,77.70
2022-09-07T21:56:21.072Z,78.10
2022-09-07T21:58:47.707Z,78.50
2022-09-07T22:01:18.930Z,78.80
2022-09-07T22:03:47.876Z,79.10
2022-09-07T22:06:15.305Z,79.30
2022-09-07T22:08:42.778Z,79.80
2022-09-07T22:11:14.763Z,79.90
2022-09-07T22:13:43.931Z,80.10
2022-09-07T22:16:11.214Z,80.50
2022-09-07T22:18:44.256Z,80.90
2022-09-07T22:21:17.210Z,81.40
2022-09-07T22:23:47.159Z,81.50
2022-09-07T22:26:15.061Z,81.60
2022-09-07T22:28:42.126Z,81.90
2022-09-07T22:31:26.423Z,82.10
2022-09-07T22:33:54.299Z,82.20
2022-09-07T22:36:29.866Z,82.10
2022-09-07T22:38:58.431Z,82.40
2022-09-07T22:41:27.789Z,82.60
2022-09-07T22:43:54.802Z,82.80
2022-09-07T22:46:23.647Z,83.00
2022-09-07T22:48:50.935Z,83.10
2022-09-07T22:51:17.623Z,83.00
2022-09-07T22:53:44.445Z,83.10
2022-09-07T22:56:15.288Z,83.40
2022-09-07T22:59:03.483Z,83.60
2022-09-07T23:01:31.415Z,84.30
2022-09-07T23:03:59.153Z,84.50
2022-09-07T23:06:28.027Z,84.40
2022-09-07T23:08:55.681Z,84.30
2022-09-07T23:11:24.234Z,84.80
2022-09-07T23:13:52.866Z,85.00
2022-09-07T23:16:20.553Z,85.10
2022-09-07T23:18:48.230Z,84.80
2022-09-07T23:21:14.993Z,85.10
2022-09-07T23:23:41.756Z,85.10
2022-09-07T23:26:08.993Z,85.10
2022-09-07T23:28:35.645Z,85.10
2022-09-07T23:31:02.431Z,85.30
2022-09-07T23:33:29.210Z,85.40
2022-09-07T23:36:00.627Z,85.80
2022-09-07T23:38:27.738Z,85.80
2022-09-07T23:40:55.237Z,85.80
2022-09-07T23:43:22.974Z,85.90
2022-09-07T23:45:49.811Z,86.00
2022-09-07T23:48:16.575Z,86.20
2022-09-07T23:50:44.326Z,86.30
2022-09-07T23:53:11.302Z,86.20
2022-09-07T23:55:38.158Z,86.30
2022-09-07T23:58:05.179Z,86.30
